FDX104 KMEM-KMIA
Flight info
| Callsign | FDX104 |
|---|---|
| Flight time | N/A |
| Altitude | 39000 |
| Route | BBKNG7 KERMI MGMRY ACORI FROGZ5 |
| Aircraft | MD11/H-SDE1E2E3FGHIJ2J3J4J5M1RWXY/LB1D1 |
Departure
| Time | 2026-05-05 15:27 |
|---|---|
| Airport | Memphis International Airport (KMEM) |
Arrival
| Time | N/A |
|---|---|
| Airport | Miami International Airport (KMIA) |
| Time | Latitude | Longitude | Altitude | Speed | Heading |
|---|---|---|---|---|---|
| 2026-05-05 15:08 | 35.06018 | -89.97192 | 266 ft | 0 kts | 2° |
| 2026-05-05 15:17 | 35.06009 | -89.97192 | 266 ft | 2 kts | 356° |
| 2026-05-05 15:17 | 35.05994 | -89.97189 | 266 ft | 2 kts | 344° |
| 2026-05-05 15:17 | 35.05980 | -89.97183 | 266 ft | 2 kts | 334° |
| 2026-05-05 15:17 | 35.05967 | -89.97174 | 267 ft | 2 kts | 324° |
| 2026-05-05 15:18 | 35.05955 | -89.97163 | 267 ft | 2 kts | 315° |
| 2026-05-05 15:18 | 35.05946 | -89.97150 | 267 ft | 2 kts | 305° |
| 2026-05-05 15:18 | 35.05938 | -89.97134 | 267 ft | 2 kts | 296° |
| 2026-05-05 15:18 | 35.05933 | -89.97118 | 267 ft | 2 kts | 286° |
| 2026-05-05 15:19 | 35.05930 | -89.97101 | 267 ft | 2 kts | 276° |
| 2026-05-05 15:19 | 35.05929 | -89.97089 | 268 ft | 1 kts | 271° |
| 2026-05-05 15:19 | 35.05929 | -89.97088 | 268 ft | 0 kts | 270° |
| 2026-05-05 15:20 | 35.05929 | -89.97091 | 267 ft | 2 kts | 270° |
| 2026-05-05 15:21 | 35.05922 | -89.97148 | 268 ft | 9 kts | 237° |
| 2026-05-05 15:21 | 35.05854 | -89.97179 | 269 ft | 11 kts | 185° |
| 2026-05-05 15:21 | 35.05770 | -89.97188 | 271 ft | 11 kts | 183° |
| 2026-05-05 15:21 | 35.05689 | -89.97207 | 272 ft | 12 kts | 218° |
| 2026-05-05 15:22 | 35.05663 | -89.97315 | 273 ft | 14 kts | 272° |
| 2026-05-05 15:22 | 35.05666 | -89.97448 | 270 ft | 15 kts | 271° |
| 2026-05-05 15:22 | 35.05668 | -89.97572 | 269 ft | 13 kts | 271° |
| 2026-05-05 15:22 | 35.05672 | -89.97703 | 269 ft | 17 kts | 273° |
| 2026-05-05 15:23 | 35.05677 | -89.97853 | 269 ft | 18 kts | 272° |
| 2026-05-05 15:23 | 35.05682 | -89.98006 | 266 ft | 17 kts | 271° |
| 2026-05-05 15:23 | 35.05686 | -89.98144 | 266 ft | 15 kts | 272° |
| 2026-05-05 15:23 | 35.05690 | -89.98280 | 266 ft | 15 kts | 271° |
| 2026-05-05 15:24 | 35.05693 | -89.98421 | 264 ft | 14 kts | 269° |
| 2026-05-05 15:24 | 35.05629 | -89.98505 | 264 ft | 15 kts | 190° |
| 2026-05-05 15:24 | 35.05519 | -89.98509 | 268 ft | 13 kts | 180° |
| 2026-05-05 15:24 | 35.05424 | -89.98511 | 271 ft | 14 kts | 180° |
| 2026-05-05 15:25 | 35.05318 | -89.98511 | 273 ft | 15 kts | 180° |
| 2026-05-05 15:25 | 35.05215 | -89.98512 | 277 ft | 13 kts | 180° |
| 2026-05-05 15:25 | 35.05124 | -89.98521 | 279 ft | 13 kts | 192° |
| 2026-05-05 15:25 | 35.05033 | -89.98566 | 281 ft | 11 kts | 205° |
| 2026-05-05 15:26 | 35.04962 | -89.98611 | 283 ft | 11 kts | 220° |
| 2026-05-05 15:26 | 35.04935 | -89.98699 | 282 ft | 9 kts | 259° |
| 2026-05-05 15:26 | 35.04894 | -89.98741 | 281 ft | 8 kts | 183° |
| 2026-05-05 15:26 | 35.04837 | -89.98740 | 282 ft | 10 kts | 178° |
| 2026-05-05 15:27 | 35.04550 | -89.98734 | 284 ft | 80 kts | 179° |
| 2026-05-05 15:27 | 35.03737 | -89.98713 | 295 ft | 149 kts | 178° |
| 2026-05-05 15:27 | 35.02588 | -89.98669 | 658 ft | 171 kts | 177° |
| 2026-05-05 15:27 | 35.01427 | -89.98622 | 1403 ft | 169 kts | 179° |
| 2026-05-05 15:28 | 35.00270 | -89.98577 | 2192 ft | 173 kts | 180° |
| 2026-05-05 15:28 | 34.99033 | -89.98505 | 2855 ft | 186 kts | 182° |
| 2026-05-05 15:28 | 34.97672 | -89.98213 | 3515 ft | 210 kts | 164° |
| 2026-05-05 15:28 | 34.96341 | -89.97384 | 4366 ft | 227 kts | 155° |
| 2026-05-05 15:29 | 34.94963 | -89.96319 | 4764 ft | 242 kts | 149° |
| 2026-05-05 15:29 | 34.93736 | -89.94896 | 4852 ft | 251 kts | 133° |
| 2026-05-05 15:29 | 34.92902 | -89.93027 | 4892 ft | 258 kts | 112° |
| 2026-05-05 15:29 | 34.92587 | -89.90840 | 4953 ft | 264 kts | 99° |
| 2026-05-05 15:30 | 34.92527 | -89.88605 | 4936 ft | 267 kts | 94° |
| 2026-05-05 15:30 | 34.92535 | -89.86267 | 5289 ft | 282 kts | 94° |
| 2026-05-05 15:30 | 34.92523 | -89.83904 | 6458 ft | 289 kts | 94° |
| 2026-05-05 15:30 | 34.92450 | -89.81479 | 7504 ft | 300 kts | 96° |
| 2026-05-05 15:31 | 34.92316 | -89.78781 | 8666 ft | 310 kts | 97° |
| 2026-05-05 15:31 | 34.92161 | -89.75957 | 9856 ft | 318 kts | 97° |
| 2026-05-05 15:31 | 34.92001 | -89.73016 | 10725 ft | 339 kts | 96° |
| 2026-05-05 15:31 | 34.91850 | -89.69917 | 11244 ft | 371 kts | 96° |
| 2026-05-05 15:32 | 34.91705 | -89.66605 | 11816 ft | 398 kts | 95° |
| 2026-05-05 15:32 | 34.91595 | -89.63187 | 12751 ft | 412 kts | 93° |
| 2026-05-05 15:32 | 34.91573 | -89.59565 | 13785 ft | 423 kts | 91° |
| 2026-05-05 15:32 | 34.91586 | -89.55711 | 14919 ft | 432 kts | 91° |
| 2026-05-05 15:33 | 34.91587 | -89.51858 | 15963 ft | 441 kts | 91° |
| 2026-05-05 15:33 | 34.91570 | -89.47967 | 17007 ft | 448 kts | 90° |
| 2026-05-05 15:33 | 34.91553 | -89.43769 | 17993 ft | 459 kts | 90° |
| 2026-05-05 15:33 | 34.91544 | -89.39579 | 18972 ft | 468 kts | 89° |
| 2026-05-05 15:34 | 34.91539 | -89.35256 | 20028 ft | 474 kts | 89° |
| 2026-05-05 15:34 | 34.91530 | -89.30813 | 21007 ft | 482 kts | 89° |
| 2026-05-05 15:34 | 34.91524 | -89.26366 | 21982 ft | 488 kts | 88° |
| 2026-05-05 15:34 | 34.91461 | -89.21912 | 22872 ft | 496 kts | 92° |
| 2026-05-05 15:35 | 34.91018 | -89.17651 | 23737 ft | 503 kts | 99° |
| 2026-05-05 15:35 | 34.90257 | -89.13320 | 24532 ft | 511 kts | 102° |
| 2026-05-05 15:35 | 34.89424 | -89.08772 | 25325 ft | 519 kts | 101° |
| 2026-05-05 15:35 | 34.88623 | -89.04221 | 26098 ft | 527 kts | 100° |
| 2026-05-05 15:36 | 34.87829 | -88.99676 | 26901 ft | 533 kts | 101° |
| 2026-05-05 15:36 | 34.87035 | -88.95164 | 27638 ft | 540 kts | 100° |
| 2026-05-05 15:36 | 34.86212 | -88.90509 | 28344 ft | 547 kts | 101° |
| 2026-05-05 15:36 | 34.85340 | -88.85638 | 29142 ft | 554 kts | 101° |
| 2026-05-05 15:37 | 34.84476 | -88.80717 | 29906 ft | 560 kts | 100° |
| 2026-05-05 15:37 | 34.83595 | -88.75699 | 30544 ft | 569 kts | 99° |
| 2026-05-05 15:37 | 34.82717 | -88.70690 | 31335 ft | 572 kts | 100° |
| 2026-05-05 15:37 | 34.81849 | -88.65796 | 32129 ft | 574 kts | 99° |
| 2026-05-05 15:38 | 34.80986 | -88.60886 | 32805 ft | 578 kts | 99° |
| 2026-05-05 15:38 | 34.80169 | -88.56099 | 33426 ft | 581 kts | 99° |
| 2026-05-05 15:38 | 34.79329 | -88.51284 | 34210 ft | 583 kts | 99° |
| 2026-05-05 15:38 | 34.78481 | -88.46476 | 34956 ft | 583 kts | 99° |
| 2026-05-05 15:39 | 34.77629 | -88.41602 | 35602 ft | 585 kts | 98° |
| 2026-05-05 15:39 | 34.76812 | -88.36787 | 36310 ft | 584 kts | 98° |
| 2026-05-05 15:39 | 34.75987 | -88.31976 | 36857 ft | 585 kts | 98° |
| 2026-05-05 15:39 | 34.75131 | -88.27096 | 37456 ft | 585 kts | 98° |
| 2026-05-05 15:40 | 34.74230 | -88.22151 | 37823 ft | 589 kts | 104° |
| 2026-05-05 15:40 | 34.72922 | -88.17511 | 38388 ft | 589 kts | 114° |
| 2026-05-05 15:40 | 34.71079 | -88.13086 | 38691 ft | 590 kts | 124° |
| 2026-05-05 15:40 | 34.68683 | -88.08968 | 39089 ft | 583 kts | 134° |
| 2026-05-05 15:41 | 34.65927 | -88.05389 | 38938 ft | 574 kts | 145° |
| 2026-05-05 15:41 | 34.62557 | -88.02232 | 38890 ft | 559 kts | 158° |
| 2026-05-05 15:41 | 34.58830 | -87.99955 | 38975 ft | 543 kts | 171° |
| 2026-05-05 15:41 | 34.54965 | -87.98563 | 39001 ft | 530 kts | 180° |
| 2026-05-05 15:42 | 34.51022 | -87.97441 | 38951 ft | 538 kts | 174° |
| 2026-05-05 15:42 | 34.47099 | -87.95713 | 38959 ft | 553 kts | 165° |
| 2026-05-05 15:42 | 34.43367 | -87.93359 | 38977 ft | 564 kts | 157° |
| 2026-05-05 15:43 | 34.36230 | -87.87886 | 38938 ft | 569 kts | 155° |
| 2026-05-05 15:43 | 34.28991 | -87.82362 | 38963 ft | 569 kts | 156° |
| 2026-05-05 15:44 | 34.21730 | -87.76962 | 38953 ft | 566 kts | 156° |
| 2026-05-05 15:44 | 34.14499 | -87.71585 | 38958 ft | 566 kts | 156° |
| 2026-05-05 15:45 | 34.07285 | -87.66179 | 38959 ft | 565 kts | 156° |
| 2026-05-05 15:45 | 34.00265 | -87.60928 | 38972 ft | 565 kts | 156° |
| 2026-05-05 15:46 | 33.93203 | -87.55661 | 38982 ft | 568 kts | 156° |
| 2026-05-05 15:46 | 33.86048 | -87.50434 | 38977 ft | 565 kts | 156° |
| 2026-05-05 15:47 | 33.78875 | -87.45216 | 38994 ft | 565 kts | 155° |
| 2026-05-05 15:47 | 33.71703 | -87.39925 | 39002 ft | 566 kts | 156° |
| 2026-05-05 15:48 | 33.64516 | -87.34687 | 38984 ft | 565 kts | 156° |
| 2026-05-05 15:48 | 33.57424 | -87.29469 | 38969 ft | 563 kts | 157° |
| 2026-05-05 15:49 | 33.50319 | -87.24277 | 38998 ft | 562 kts | 156° |
| 2026-05-05 15:49 | 33.43238 | -87.19070 | 39016 ft | 564 kts | 156° |
| 2026-05-05 15:50 | 33.36134 | -87.13876 | 39013 ft | 563 kts | 155° |
| 2026-05-05 15:50 | 33.29072 | -87.08677 | 39036 ft | 564 kts | 156° |
| 2026-05-05 15:51 | 33.22041 | -87.03544 | 39033 ft | 564 kts | 156° |
| 2026-05-05 15:51 | 33.14984 | -86.98503 | 39028 ft | 563 kts | 156° |
| 2026-05-05 15:52 | 33.08012 | -86.93484 | 39036 ft | 563 kts | 155° |
| 2026-05-05 15:52 | 33.00931 | -86.88412 | 39042 ft | 562 kts | 156° |
| 2026-05-05 15:53 | 32.93985 | -86.83424 | 39025 ft | 562 kts | 155° |
| 2026-05-05 15:53 | 32.87088 | -86.78437 | 39007 ft | 564 kts | 155° |
| 2026-05-05 15:54 | 32.80164 | -86.73483 | 39005 ft | 563 kts | 156° |
| 2026-05-05 15:54 | 32.73296 | -86.68533 | 39022 ft | 563 kts | 155° |
| 2026-05-05 15:55 | 32.66310 | -86.63519 | 39005 ft | 563 kts | 155° |
| 2026-05-05 15:55 | 32.59352 | -86.58495 | 39023 ft | 563 kts | 155° |
| 2026-05-05 15:56 | 32.52441 | -86.53537 | 39026 ft | 564 kts | 154° |
| 2026-05-05 15:56 | 32.45492 | -86.48628 | 39033 ft | 564 kts | 155° |
| 2026-05-05 15:57 | 32.38300 | -86.43504 | 39044 ft | 562 kts | 155° |